createdAt,value
2022-12-04T00:10:02.266Z,25.3661
2022-12-04T00:25:04.162Z,26.5788
2022-12-04T00:40:06.047Z,26.2668
2022-12-04T00:55:07.966Z,26.5367
2022-12-04T01:10:09.881Z,24.9049
2022-12-04T01:25:12.040Z,23.5102
2022-12-04T01:40:13.963Z,24.0853
2022-12-04T01:55:15.904Z,25.675
2022-12-04T02:10:17.843Z,25.1878
2022-12-04T02:25:19.829Z,22.7395
2022-12-04T02:40:21.719Z,25.2033
2022-12-04T02:55:23.607Z,25.2361
2022-12-04T03:10:25.540Z,25.2553
2022-12-04T03:25:27.480Z,25.454
2022-12-04T03:40:29.350Z,25.3172
2022-12-04T03:55:31.207Z,25.2912
2022-12-04T04:10:33.347Z,25.4311
2022-12-04T04:25:35.262Z,25.4639
2022-12-04T04:40:37.183Z,25.9542
2022-12-04T04:55:39.122Z,25.8799
2022-12-04T05:10:41.129Z,26.1331
2022-12-04T05:25:43.087Z,26.052
2022-12-04T05:40:45.024Z,25.6428
2022-12-04T05:55:46.935Z,26.221
2022-12-04T06:10:48.881Z,23.9361
2022-12-04T06:25:50.936Z,24.8393
2022-12-04T06:40:52.869Z,25.6001
2022-12-04T06:55:54.785Z,25.402
2022-12-04T07:10:59.276Z,26.4123
2022-12-04T07:26:01.505Z,25.623
2022-12-04T07:41:03.524Z,24.8913
2022-12-04T07:56:05.529Z,25.2132
2022-12-04T08:11:07.494Z,25.1482
2022-12-04T08:26:09.417Z,23.5591
2022-12-04T08:41:11.389Z,22.9766
2022-12-04T08:56:13.360Z,22.0926
2022-12-04T09:11:15.361Z,22.0895
2022-12-04T09:26:17.309Z,20.9387
2022-12-04T09:41:19.310Z,21.1077
2022-12-04T09:56:21.234Z,20.649
2022-12-04T10:11:26.523Z,19.96
2022-12-04T10:26:31.245Z,20.2751
2022-12-04T10:41:33.169Z,19.0271
2022-12-04T10:56:35.117Z,19.3391
2022-12-04T11:11:37.053Z,19.0723
2022-12-04T11:26:38.974Z,19.3094
2022-12-04T11:41:40.913Z,19.0104
2022-12-04T11:56:42.906Z,19.0265
2022-12-04T12:11:44.860Z,18.8835
2022-12-04T12:26:46.847Z,18.3963
2022-12-04T12:41:48.751Z,19.0556
2022-12-04T12:56:50.672Z,17.5903
2022-12-04T13:11:52.627Z,18.3963
2022-12-04T13:26:54.668Z,17.8466
2022-12-04T13:41:56.514Z,18.2564
2022-12-04T13:56:58.357Z,18.0094
2022-12-04T14:12:00.149Z,18.4836
2022-12-04T14:27:11.721Z,18.2205
2022-12-04T14:42:13.871Z,18.2075
2022-12-04T14:57:15.703Z,18.1456
2022-12-04T15:12:17.597Z,18.2985
2022-12-04T15:27:19.471Z,18.2496
2022-12-04T15:42:21.399Z,17.5315
2022-12-04T15:57:23.259Z,18.2075
2022-12-04T16:40:22.743Z,16.2792
2022-12-04T16:55:24.572Z,17.8497
2022-12-04T17:10:26.384Z,17.3656
2022-12-04T17:25:28.225Z,19.3775
2022-12-04T17:40:30.063Z,19.1466
2022-12-04T17:55:31.870Z,19.9464
2022-12-04T18:10:33.694Z,19.5892
2022-12-04T18:25:35.531Z,19.3385
2022-12-04T18:40:37.380Z,20.6812
2022-12-04T18:55:39.185Z,22.365
2022-12-04T19:10:41.044Z,22.5538
2022-12-04T19:25:42.911Z,23.2335
2022-12-04T19:40:44.717Z,22.4337
2022-12-04T19:55:46.559Z,22.5507
2022-12-04T20:10:48.766Z,22.6318
2022-12-04T20:25:50.612Z,22.4987
2022-12-04T20:40:52.468Z,22.2548
2022-12-04T20:55:54.285Z,22.3947
2022-12-04T21:10:56.110Z,24.1045
2022-12-04T21:25:57.937Z,25.3296
2022-12-04T21:40:59.793Z,25.2652
2022-12-04T21:56:01.620Z,23.2601
2022-12-04T22:11:03.476Z,24.7551
2022-12-04T22:26:05.310Z,24.4592
2022-12-04T22:41:07.078Z,25.4862
2022-12-04T22:56:08.938Z,23.1691
2022-12-04T23:11:10.800Z,21.9174
2022-12-04T23:26:12.616Z,21.6574
2022-12-04T23:41:14.448Z,21.0198
2022-12-04T23:56:16.225Z,20.9876
